sensor_id;sensor_type;location;lat;lon;timestamp;temperature;humidity
40123;DHT22;25832;45.490;4.912;2024-03-29T00:00:54;12.90;95.40
40123;DHT22;25832;45.490;4.912;2024-03-29T00:03:20;12.90;95.50
40123;DHT22;25832;45.490;4.912;2024-03-29T00:05:46;12.90;95.50
40123;DHT22;25832;45.490;4.912;2024-03-29T00:08:11;12.90;95.50
40123;DHT22;25832;45.490;4.912;2024-03-29T00:10:37;12.90;95.40
40123;DHT22;25832;45.490;4.912;2024-03-29T00:13:04;13.00;95.30
40123;DHT22;25832;45.490;4.912;2024-03-29T00:15:31;13.10;95.20
40123;DHT22;25832;45.490;4.912;2024-03-29T00:17:57;13.20;95.30
40123;DHT22;25832;45.490;4.912;2024-03-29T00:20:23;13.20;95.20
40123;DHT22;25832;45.490;4.912;2024-03-29T00:22:49;13.20;95.30
40123;DHT22;25832;45.490;4.912;2024-03-29T00:25:14;13.20;95.20
40123;DHT22;25832;45.490;4.912;2024-03-29T00:27:40;13.30;95.20
40123;DHT22;25832;45.490;4.912;2024-03-29T00:30:06;13.30;95.10
40123;DHT22;25832;45.490;4.912;2024-03-29T00:32:32;13.40;94.80
40123;DHT22;25832;45.490;4.912;2024-03-29T00:34:57;13.50;94.70
40123;DHT22;25832;45.490;4.912;2024-03-29T00:37:24;13.50;94.80
40123;DHT22;25832;45.490;4.912;2024-03-29T00:39:50;13.50;94.90
40123;DHT22;25832;45.490;4.912;2024-03-29T00:42:16;13.60;95.00
40123;DHT22;25832;45.490;4.912;2024-03-29T00:44:42;13.60;95.10
40123;DHT22;25832;45.490;4.912;2024-03-29T00:47:09;13.60;95.50
40123;DHT22;25832;45.490;4.912;2024-03-29T00:49:35;13.50;95.50
40123;DHT22;25832;45.490;4.912;2024-03-29T00:52:01;13.60;95.60
40123;DHT22;25832;45.490;4.912;2024-03-29T00:54:27;13.60;95.70
40123;DHT22;25832;45.490;4.912;2024-03-29T00:56:52;13.60;95.80
40123;DHT22;25832;45.490;4.912;2024-03-29T00:59:18;13.70;95.90
40123;DHT22;25832;45.490;4.912;2024-03-29T01:01:46;13.60;96.10
40123;DHT22;25832;45.490;4.912;2024-03-29T01:04:12;13.60;96.40
40123;DHT22;25832;45.490;4.912;2024-03-29T01:06:38;13.70;96.70
40123;DHT22;25832;45.490;4.912;2024-03-29T01:09:06;13.60;96.70
40123;DHT22;25832;45.490;4.912;2024-03-29T01:11:31;13.70;96.90
40123;DHT22;25832;45.490;4.912;2024-03-29T01:13:57;13.70;97.20
40123;DHT22;25832;45.490;4.912;2024-03-29T01:16:23;13.70;97.20
40123;DHT22;25832;45.490;4.912;2024-03-29T01:18:49;13.70;97.50
40123;DHT22;25832;45.490;4.912;2024-03-29T01:21:15;13.60;97.50
40123;DHT22;25832;45.490;4.912;2024-03-29T01:23:41;13.60;97.80
40123;DHT22;25832;45.490;4.912;2024-03-29T01:26:07;13.60;97.80
40123;DHT22;25832;45.490;4.912;2024-03-29T01:28:33;13.60;98.10
40123;DHT22;25832;45.490;4.912;2024-03-29T01:30:59;13.70;98.00
40123;DHT22;25832;45.490;4.912;2024-03-29T01:33:25;13.70;98.20
40123;DHT22;25832;45.490;4.912;2024-03-29T01:35:51;13.70;98.50
40123;DHT22;25832;45.490;4.912;2024-03-29T01:38:16;13.80;98.60
40123;DHT22;25832;45.490;4.912;2024-03-29T01:40:43;13.80;98.60
40123;DHT22;25832;45.490;4.912;2024-03-29T01:43:08;13.80;98.60
40123;DHT22;25832;45.490;4.912;2024-03-29T01:45:41;13.80;98.90
40123;DHT22;25832;45.490;4.912;2024-03-29T01:48:08;13.80;98.90
40123;DHT22;25832;45.490;4.912;2024-03-29T01:50:35;13.80;99.00
40123;DHT22;25832;45.490;4.912;2024-03-29T01:53:02;13.90;98.90
40123;DHT22;25832;45.490;4.912;2024-03-29T01:55:29;14.00;99.20
40123;DHT22;25832;45.490;4.912;2024-03-29T01:57:56;14.10;99.00
40123;DHT22;25832;45.490;4.912;2024-03-29T02:00:22;14.10;99.20
40123;DHT22;25832;45.490;4.912;2024-03-29T02:02:48;14.10;99.10
40123;DHT22;25832;45.490;4.912;2024-03-29T02:08:36;14.30;99.20
40123;DHT22;25832;45.490;4.912;2024-03-29T02:11:03;14.30;99.20
40123;DHT22;25832;45.490;4.912;2024-03-29T02:13:29;14.30;99.20
40123;DHT22;25832;45.490;4.912;2024-03-29T02:15:55;14.30;99.10
40123;DHT22;25832;45.490;4.912;2024-03-29T02:18:21;14.50;99.10
40123;DHT22;25832;45.490;4.912;2024-03-29T02:20:46;14.50;99.10
40123;DHT22;25832;45.490;4.912;2024-03-29T02:23:20;14.50;99.30
40123;DHT22;25832;45.490;4.912;2024-03-29T02:25:51;14.50;99.40
40123;DHT22;25832;45.490;4.912;2024-03-29T02:28:17;14.50;99.50
40123;DHT22;25832;45.490;4.912;2024-03-29T02:30:43;14.50;99.50
40123;DHT22;25832;45.490;4.912;2024-03-29T02:33:08;14.50;99.70
40123;DHT22;25832;45.490;4.912;2024-03-29T02:35:34;14.60;99.90
40123;DHT22;25832;45.490;4.912;2024-03-29T02:38:00;14.60;99.90
40123;DHT22;25832;45.490;4.912;2024-03-29T02:40:25;14.60;99.90
40123;DHT22;25832;45.490;4.912;2024-03-29T02:42:51;14.60;99.90
40123;DHT22;25832;45.490;4.912;2024-03-29T02:45:17;14.60;99.90
40123;DHT22;25832;45.490;4.912;2024-03-29T02:47:43;14.60;99.90
40123;DHT22;25832;45.490;4.912;2024-03-29T02:50:11;14.60;99.90
40123;DHT22;25832;45.490;4.912;2024-03-29T02:52:37;14.60;99.90
40123;DHT22;25832;45.490;4.912;2024-03-29T02:55:02;14.60;99.90
40123;DHT22;25832;45.490;4.912;2024-03-29T02:57:28;14.60;99.90
40123;DHT22;25832;45.490;4.912;2024-03-29T02:59:54;14.70;99.90
40123;DHT22;25832;45.490;4.912;2024-03-29T03:02:19;14.60;99.90
40123;DHT22;25832;45.490;4.912;2024-03-29T03:04:45;14.60;99.90
40123;DHT22;25832;45.490;4.912;2024-03-29T03:07:11;14.70;99.90
40123;DHT22;25832;45.490;4.912;2024-03-29T03:09:55;14.70;99.90
40123;DHT22;25832;45.490;4.912;2024-03-29T03:12:39;14.60;99.90
40123;DHT22;25832;45.490;4.912;2024-03-29T03:15:05;14.60;99.90
40123;DHT22;25832;45.490;4.912;2024-03-29T03:17:31;14.60;99.90
40123;DHT22;25832;45.490;4.912;2024-03-29T03:19:57;14.60;99.90
40123;DHT22;25832;45.490;4.912;2024-03-29T03:22:24;14.70;99.90
40123;DHT22;25832;45.490;4.912;2024-03-29T03:24:49;14.70;99.90
40123;DHT22;25832;45.490;4.912;2024-03-29T03:27:15;14.60;99.90
40123;DHT22;25832;45.490;4.912;2024-03-29T03:29:40;14.70;99.90
40123;DHT22;25832;45.490;4.912;2024-03-29T03:32:06;14.70;99.90
40123;DHT22;25832;45.490;4.912;2024-03-29T03:34:32;14.80;99.90
40123;DHT22;25832;45.490;4.912;2024-03-29T03:36:58;14.80;99.90
40123;DHT22;25832;45.490;4.912;2024-03-29T03:39:24;14.80;99.90
40123;DHT22;25832;45.490;4.912;2024-03-29T03:41:50;14.70;99.90
40123;DHT22;25832;45.490;4.912;2024-03-29T03:44:16;14.70;99.90
40123;DHT22;25832;45.490;4.912;2024-03-29T03:46:41;14.80;99.90
40123;DHT22;25832;45.490;4.912;2024-03-29T03:49:07;14.70;99.90
40123;DHT22;25832;45.490;4.912;2024-03-29T03:51:32;14.70;99.90
40123;DHT22;25832;45.490;4.912;2024-03-29T03:53:58;14.70;99.90
40123;DHT22;25832;45.490;4.912;2024-03-29T03:56:24;14.80;99.90
40123;DHT22;25832;45.490;4.912;2024-03-29T03:58:49;14.70;99.90
40123;DHT22;25832;45.490;4.912;2024-03-29T04:01:15;14.80;99.90
40123;DHT22;25832;45.490;4.912;2024-03-29T04:03:41;14.80;99.90
40123;DHT22;25832;45.490;4.912;2024-03-29T04:06:06;14.90;99.90
40123;DHT22;25832;45.490;4.912;2024-03-29T04:08:32;14.90;99.90
40123;DHT22;25832;45.490;4.912;2024-03-29T04:11:02;14.90;99.90
40123;DHT22;25832;45.490;4.912;2024-03-29T04:13:28;14.90;99.90
40123;DHT22;25832;45.490;4.912;2024-03-29T04:16:00;14.90;99.90
40123;DHT22;25832;45.490;4.912;2024-03-29T04:18:26;14.90;99.90
40123;DHT22;25832;45.490;4.912;2024-03-29T04:20:57;14.80;99.90
40123;DHT22;25832;45.490;4.912;2024-03-29T04:23:23;14.90;99.90
40123;DHT22;25832;45.490;4.912;2024-03-29T04:25:55;14.90;99.90
40123;DHT22;25832;45.490;4.912;2024-03-29T04:28:21;14.90;99.90
40123;DHT22;25832;45.490;4.912;2024-03-29T04:33:16;14.90;99.90
40123;DHT22;25832;45.490;4.912;2024-03-29T04:36:00;14.90;99.90
40123;DHT22;25832;45.490;4.912;2024-03-29T04:38:27;14.90;99.90
40123;DHT22;25832;45.490;4.912;2024-03-29T04:40:54;14.80;99.90
40123;DHT22;25832;45.490;4.912;2024-03-29T04:43:24;14.80;99.90
40123;DHT22;25832;45.490;4.912;2024-03-29T04:45:50;14.80;99.90
40123;DHT22;25832;45.490;4.912;2024-03-29T04:48:16;14.70;99.90
40123;DHT22;25832;45.490;4.912;2024-03-29T04:50:42;14.70;99.90
40123;DHT22;25832;45.490;4.912;2024-03-29T04:53:08;14.70;99.90
40123;DHT22;25832;45.490;4.912;2024-03-29T04:55:34;14.60;99.90
40123;DHT22;25832;45.490;4.912;2024-03-29T04:58:00;14.70;99.90
40123;DHT22;25832;45.490;4.912;2024-03-29T05:00:26;14.80;99.90
40123;DHT22;25832;45.490;4.912;2024-03-29T05:02:52;14.70;99.90
40123;DHT22;25832;45.490;4.912;2024-03-29T05:05:17;14.80;99.90
40123;DHT22;25832;45.490;4.912;2024-03-29T05:07:43;14.80;99.90
40123;DHT22;25832;45.490;4.912;2024-03-29T05:10:09;14.70;99.90
40123;DHT22;25832;45.490;4.912;2024-03-29T05:12:35;14.80;99.90
40123;DHT22;25832;45.490;4.912;2024-03-29T05:15:01;14.80;99.90
40123;DHT22;25832;45.490;4.912;2024-03-29T05:17:27;14.80;99.90
40123;DHT22;25832;45.490;4.912;2024-03-29T05:19:53;14.80;99.90
40123;DHT22;25832;45.490;4.912;2024-03-29T05:22:19;14.80;99.90
40123;DHT22;25832;45.490;4.912;2024-03-29T05:24:45;14.80;99.90
40123;DHT22;25832;45.490;4.912;2024-03-29T05:27:14;14.80;99.90
40123;DHT22;25832;45.490;4.912;2024-03-29T05:29:40;14.90;99.90
40123;DHT22;25832;45.490;4.912;2024-03-29T05:32:06;14.90;99.90
40123;DHT22;25832;45.490;4.912;2024-03-29T05:34:32;14.90;99.90
40123;DHT22;25832;45.490;4.912;2024-03-29T05:36:58;15.00;99.90
40123;DHT22;25832;45.490;4.912;2024-03-29T05:39:24;15.00;99.90
40123;DHT22;25832;45.490;4.912;2024-03-29T05:41:49;15.00;99.90
40123;DHT22;25832;45.490;4.912;2024-03-29T05:44:15;15.10;99.90
40123;DHT22;25832;45.490;4.912;2024-03-29T05:46:41;15.10;99.90
40123;DHT22;25832;45.490;4.912;2024-03-29T05:49:07;15.10;99.90
40123;DHT22;25832;45.490;4.912;2024-03-29T05:51:32;15.20;99.90
40123;DHT22;25832;45.490;4.912;2024-03-29T05:53:59;15.20;99.90
40123;DHT22;25832;45.490;4.912;2024-03-29T05:56:25;15.20;99.90
40123;DHT22;25832;45.490;4.912;2024-03-29T05:58:51;15.20;99.90
40123;DHT22;25832;45.490;4.912;2024-03-29T06:01:16;15.30;99.90
40123;DHT22;25832;45.490;4.912;2024-03-29T06:03:42;15.30;99.90
40123;DHT22;25832;45.490;4.912;2024-03-29T06:06:08;15.30;99.90
40123;DHT22;25832;45.490;4.912;2024-03-29T06:08:37;15.30;99.90
40123;DHT22;25832;45.490;4.912;2024-03-29T06:11:03;15.30;99.90
40123;DHT22;25832;45.490;4.912;2024-03-29T06:13:29;15.40;99.90
40123;DHT22;25832;45.490;4.912;2024-03-29T06:16:13;15.40;99.90
40123;DHT22;25832;45.490;4.912;2024-03-29T06:18:57;15.40;99.90
40123;DHT22;25832;45.490;4.912;2024-03-29T06:21:23;15.40;99.90
40123;DHT22;25832;45.490;4.912;2024-03-29T06:23:48;15.40;99.90
40123;DHT22;25832;45.490;4.912;2024-03-29T06:26:14;15.40;99.90
40123;DHT22;25832;45.490;4.912;2024-03-29T06:28:40;15.40;99.90
40123;DHT22;25832;45.490;4.912;2024-03-29T06:31:05;15.40;99.90
40123;DHT22;25832;45.490;4.912;2024-03-29T06:33:31;15.40;99.90
40123;DHT22;25832;45.490;4.912;2024-03-29T06:35:56;15.40;99.90
40123;DHT22;25832;45.490;4.912;2024-03-29T06:38:22;15.40;99.90
40123;DHT22;25832;45.490;4.912;2024-03-29T06:40:48;15.30;99.90
40123;DHT22;25832;45.490;4.912;2024-03-29T06:43:14;15.30;99.90
40123;DHT22;25832;45.490;4.912;2024-03-29T06:45:40;15.30;99.90
40123;DHT22;25832;45.490;4.912;2024-03-29T06:48:08;15.30;99.90
40123;DHT22;25832;45.490;4.912;2024-03-29T06:50:34;15.30;99.90
40123;DHT22;25832;45.490;4.912;2024-03-29T06:53:00;15.30;99.90
40123;DHT22;25832;45.490;4.912;2024-03-29T06:55:26;15.30;99.90
40123;DHT22;25832;45.490;4.912;2024-03-29T06:57:51;15.30;99.90
40123;DHT22;25832;45.490;4.912;2024-03-29T07:00:17;15.30;99.90
40123;DHT22;25832;45.490;4.912;2024-03-29T07:02:43;15.30;99.90
40123;DHT22;25832;45.490;4.912;2024-03-29T07:05:09;15.30;99.90
40123;DHT22;25832;45.490;4.912;2024-03-29T07:07:37;15.30;99.90
40123;DHT22;25832;45.490;4.912;2024-03-29T07:10:03;15.30;99.90
40123;DHT22;25832;45.490;4.912;2024-03-29T07:12:29;15.30;99.90
40123;DHT22;25832;45.490;4.912;2024-03-29T07:14:54;15.30;99.90
40123;DHT22;25832;45.490;4.912;2024-03-29T07:17:20;15.30;99.90
40123;DHT22;25832;45.490;4.912;2024-03-29T07:19:46;15.40;99.90
40123;DHT22;25832;45.490;4.912;2024-03-29T07:22:11;15.40;99.90
40123;DHT22;25832;45.490;4.912;2024-03-29T07:24:37;15.40;99.90
40123;DHT22;25832;45.490;4.912;2024-03-29T07:27:03;15.40;99.90
40123;DHT22;25832;45.490;4.912;2024-03-29T07:29:28;15.40;99.90
40123;DHT22;25832;45.490;4.912;2024-03-29T07:31:54;15.40;99.90
40123;DHT22;25832;45.490;4.912;2024-03-29T07:34:20;15.50;99.90
40123;DHT22;25832;45.490;4.912;2024-03-29T07:36:46;15.50;99.90
40123;DHT22;25832;45.490;4.912;2024-03-29T07:39:11;15.60;99.90
40123;DHT22;25832;45.490;4.912;2024-03-29T07:41:37;15.60;99.90
40123;DHT22;25832;45.490;4.912;2024-03-29T07:44:03;15.60;99.90
40123;DHT22;25832;45.490;4.912;2024-03-29T07:46:33;15.60;99.90
40123;DHT22;25832;45.490;4.912;2024-03-29T07:48:59;15.70;99.90
40123;DHT22;25832;45.490;4.912;2024-03-29T07:51:24;15.60;99.90
40123;DHT22;25832;45.490;4.912;2024-03-29T07:53:50;15.70;99.90
40123;DHT22;25832;45.490;4.912;2024-03-29T07:56:16;15.70;99.90
40123;DHT22;25832;45.490;4.912;2024-03-29T07:58:43;15.70;99.90
40123;DHT22;25832;45.490;4.912;2024-03-29T08:01:08;15.70;99.90
40123;DHT22;25832;45.490;4.912;2024-03-29T08:03:34;15.70;99.90
40123;DHT22;25832;45.490;4.912;2024-03-29T08:06:00;15.60;99.90
40123;DHT22;25832;45.490;4.912;2024-03-29T08:08:33;15.60;99.90
40123;DHT22;25832;45.490;4.912;2024-03-29T08:10:59;15.70;99.90
40123;DHT22;25832;45.490;4.912;2024-03-29T08:13:26;15.70;99.90
40123;DHT22;25832;45.490;4.912;2024-03-29T08:16:01;15.70;99.90
40123;DHT22;25832;45.490;4.912;2024-03-29T08:18:28;15.70;99.90
40123;DHT22;25832;45.490;4.912;2024-03-29T08:20:54;15.70;99.90
40123;DHT22;25832;45.490;4.912;2024-03-29T08:23:25;15.70;99.90
40123;DHT22;25832;45.490;4.912;2024-03-29T08:25:50;15.80;99.90
40123;DHT22;25832;45.490;4.912;2024-03-29T08:28:18;15.80;99.90
40123;DHT22;25832;45.490;4.912;2024-03-29T08:30:44;15.90;99.90
40123;DHT22;25832;45.490;4.912;2024-03-29T08:33:09;15.90;99.90
40123;DHT22;25832;45.490;4.912;2024-03-29T08:35:35;16.00;99.90
40123;DHT22;25832;45.490;4.912;2024-03-29T08:38:01;16.00;99.90
40123;DHT22;25832;45.490;4.912;2024-03-29T08:40:28;16.10;99.90
40123;DHT22;25832;45.490;4.912;2024-03-29T08:42:55;16.10;99.90
40123;DHT22;25832;45.490;4.912;2024-03-29T08:45:21;16.10;99.90
40123;DHT22;25832;45.490;4.912;2024-03-29T08:47:47;16.20;99.90
40123;DHT22;25832;45.490;4.912;2024-03-29T08:50:12;16.20;99.90
40123;DHT22;25832;45.490;4.912;2024-03-29T08:52:39;16.30;99.90
40123;DHT22;25832;45.490;4.912;2024-03-29T08:55:06;16.30;99.90
40123;DHT22;25832;45.490;4.912;2024-03-29T08:57:32;16.40;99.90
40123;DHT22;25832;45.490;4.912;2024-03-29T08:59:58;16.50;99.90
40123;DHT22;25832;45.490;4.912;2024-03-29T09:02:23;16.50;99.90
40123;DHT22;25832;45.490;4.912;2024-03-29T09:04:49;16.60;99.90
40123;DHT22;25832;45.490;4.912;2024-03-29T09:07:15;16.60;99.90
40123;DHT22;25832;45.490;4.912;2024-03-29T09:09:40;16.70;99.90
40123;DHT22;25832;45.490;4.912;2024-03-29T09:12:08;16.80;99.80
40123;DHT22;25832;45.490;4.912;2024-03-29T09:14:34;16.80;99.10
40123;DHT22;25832;45.490;4.912;2024-03-29T09:16:59;16.90;99.20
40123;DHT22;25832;45.490;4.912;2024-03-29T09:19:25;16.90;99.00
40123;DHT22;25832;45.490;4.912;2024-03-29T09:21:52;16.90;98.80
40123;DHT22;25832;45.490;4.912;2024-03-29T09:24:18;17.00;98.90
40123;DHT22;25832;45.490;4.912;2024-03-29T09:26:44;16.90;98.90
40123;DHT22;25832;45.490;4.912;2024-03-29T09:29:10;17.00;98.40
40123;DHT22;25832;45.490;4.912;2024-03-29T09:31:38;17.00;98.30
40123;DHT22;25832;45.490;4.912;2024-03-29T09:34:04;17.00;97.80
40123;DHT22;25832;45.490;4.912;2024-03-29T09:36:29;17.00;97.80
40123;DHT22;25832;45.490;4.912;2024-03-29T09:38:55;17.00;97.70
40123;DHT22;25832;45.490;4.912;2024-03-29T09:41:21;17.00;97.50
40123;DHT22;25832;45.490;4.912;2024-03-29T09:43:51;17.00;97.50
40123;DHT22;25832;45.490;4.912;2024-03-29T09:46:20;17.00;97.80
40123;DHT22;25832;45.490;4.912;2024-03-29T09:48:47;17.10;96.90
40123;DHT22;25832;45.490;4.912;2024-03-29T09:51:14;17.10;96.60
40123;DHT22;25832;45.490;4.912;2024-03-29T09:53:42;17.10;96.80
40123;DHT22;25832;45.490;4.912;2024-03-29T09:56:09;17.10;95.90
40123;DHT22;25832;45.490;4.912;2024-03-29T09:58:35;17.10;97.00
40123;DHT22;25832;45.490;4.912;2024-03-29T10:01:06;17.20;96.10
40123;DHT22;25832;45.490;4.912;2024-03-29T10:03:38;17.20;95.90
40123;DHT22;25832;45.490;4.912;2024-03-29T10:06:05;17.20;95.60
40123;DHT22;25832;45.490;4.912;2024-03-29T10:08:34;17.20;95.30
40123;DHT22;25832;45.490;4.912;2024-03-29T10:11:00;17.20;95.70
40123;DHT22;25832;45.490;4.912;2024-03-29T10:13:26;17.30;94.80
40123;DHT22;25832;45.490;4.912;2024-03-29T10:15:53;17.30;94.60
40123;DHT22;25832;45.490;4.912;2024-03-29T10:18:21;17.20;95.00
40123;DHT22;25832;45.490;4.912;2024-03-29T10:21:07;17.30;94.40
40123;DHT22;25832;45.490;4.912;2024-03-29T10:23:34;17.30;94.20
40123;DHT22;25832;45.490;4.912;2024-03-29T10:26:03;17.30;94.70
40123;DHT22;25832;45.490;4.912;2024-03-29T10:28:33;17.30;93.90
40123;DHT22;25832;45.490;4.912;2024-03-29T10:31:00;17.30;94.00
40123;DHT22;25832;45.490;4.912;2024-03-29T10:33:28;17.30;93.40
40123;DHT22;25832;45.490;4.912;2024-03-29T10:35:59;17.40;93.40
40123;DHT22;25832;45.490;4.912;2024-03-29T10:38:25;17.40;94.40
40123;DHT22;25832;45.490;4.912;2024-03-29T10:40:52;17.50;93.40
40123;DHT22;25832;45.490;4.912;2024-03-29T10:43:19;17.50;93.60
40123;DHT22;25832;45.490;4.912;2024-03-29T10:45:48;17.60;92.90
40123;DHT22;25832;45.490;4.912;2024-03-29T10:48:16;17.60;92.30
40123;DHT22;25832;45.490;4.912;2024-03-29T10:50:43;17.60;92.40
40123;DHT22;25832;45.490;4.912;2024-03-29T10:53:10;17.60;92.50
40123;DHT22;25832;45.490;4.912;2024-03-29T10:55:37;17.70;92.50
40123;DHT22;25832;45.490;4.912;2024-03-29T10:58:06;17.70;92.80
40123;DHT22;25832;45.490;4.912;2024-03-29T11:00:39;17.80;92.30
40123;DHT22;25832;45.490;4.912;2024-03-29T11:05:48;17.90;92.40
40123;DHT22;25832;45.490;4.912;2024-03-29T11:08:23;18.00;92.00
40123;DHT22;25832;45.490;4.912;2024-03-29T11:10:51;18.00;92.10
40123;DHT22;25832;45.490;4.912;2024-03-29T11:16:04;18.10;91.40
40123;DHT22;25832;45.490;4.912;2024-03-29T11:18:30;18.20;91.80
40123;DHT22;25832;45.490;4.912;2024-03-29T11:20:58;18.30;92.10
40123;DHT22;25832;45.490;4.912;2024-03-29T11:23:25;18.50;91.30
40123;DHT22;25832;45.490;4.912;2024-03-29T11:25:52;18.60;91.60
40123;DHT22;25832;45.490;4.912;2024-03-29T11:28:25;18.70;90.80
40123;DHT22;25832;45.490;4.912;2024-03-29T11:42:08;18.80;90.50
40123;DHT22;25832;45.490;4.912;2024-03-29T11:44:34;18.70;90.80
40123;DHT22;25832;45.490;4.912;2024-03-29T11:47:02;18.70;90.90
40123;DHT22;25832;45.490;4.912;2024-03-29T11:49:32;18.70;91.30
40123;DHT22;25832;45.490;4.912;2024-03-29T11:52:07;18.80;91.00
40123;DHT22;25832;45.490;4.912;2024-03-29T11:54:39;18.80;91.20
40123;DHT22;25832;45.490;4.912;2024-03-29T11:57:04;18.90;90.80
40123;DHT22;25832;45.490;4.912;2024-03-29T11:59:30;19.00;90.20
40123;DHT22;25832;45.490;4.912;2024-03-29T12:01:56;19.00;90.50
40123;DHT22;25832;45.490;4.912;2024-03-29T12:04:22;19.00;90.20
40123;DHT22;25832;45.490;4.912;2024-03-29T12:06:49;19.10;90.40
40123;DHT22;25832;45.490;4.912;2024-03-29T12:09:15;19.20;88.50
40123;DHT22;25832;45.490;4.912;2024-03-29T12:11:43;19.20;90.10
40123;DHT22;25832;45.490;4.912;2024-03-29T12:14:15;19.40;90.40
40123;DHT22;25832;45.490;4.912;2024-03-29T12:16:44;19.40;89.50
40123;DHT22;25832;45.490;4.912;2024-03-29T12:19:23;19.50;89.80
40123;DHT22;25832;45.490;4.912;2024-03-29T12:21:50;19.50;88.10
40123;DHT22;25832;45.490;4.912;2024-03-29T12:24:17;19.50;88.30
40123;DHT22;25832;45.490;4.912;2024-03-29T12:26:42;19.50;89.70
40123;DHT22;25832;45.490;4.912;2024-03-29T12:29:08;19.50;88.00
40123;DHT22;25832;45.490;4.912;2024-03-29T12:31:34;19.50;89.30
40123;DHT22;25832;45.490;4.912;2024-03-29T12:33:59;19.60;89.80
40123;DHT22;25832;45.490;4.912;2024-03-29T12:36:25;19.50;88.00
40123;DHT22;25832;45.490;4.912;2024-03-29T12:38:54;19.50;88.60
40123;DHT22;25832;45.490;4.912;2024-03-29T12:41:23;19.50;86.70
40123;DHT22;25832;45.490;4.912;2024-03-29T13:20:02;19.20;87.80
40123;DHT22;25832;45.490;4.912;2024-03-29T13:22:27;19.20;89.10
40123;DHT22;25832;45.490;4.912;2024-03-29T13:24:53;19.20;89.30
40123;DHT22;25832;45.490;4.912;2024-03-29T13:27:18;19.20;88.60
40123;DHT22;25832;45.490;4.912;2024-03-29T13:29:44;19.30;88.00
40123;DHT22;25832;45.490;4.912;2024-03-29T13:32:10;19.40;89.10
40123;DHT22;25832;45.490;4.912;2024-03-29T13:34:35;19.50;87.50
40123;DHT22;25832;45.490;4.912;2024-03-29T13:37:01;19.50;87.90
40123;DHT22;25832;45.490;4.912;2024-03-29T13:39:26;19.50;86.40
40123;DHT22;25832;45.490;4.912;2024-03-29T13:41:52;19.60;87.90
40123;DHT22;25832;45.490;4.912;2024-03-29T13:44:18;19.60;86.10
40123;DHT22;25832;45.490;4.912;2024-03-29T13:46:44;19.60;86.70
40123;DHT22;25832;45.490;4.912;2024-03-29T13:49:10;19.70;86.60
40123;DHT22;25832;45.490;4.912;2024-03-29T13:51:35;19.80;84.70
40123;DHT22;25832;45.490;4.912;2024-03-29T13:54:01;19.80;85.80
40123;DHT22;25832;45.490;4.912;2024-03-29T13:56:27;19.80;86.00
40123;DHT22;25832;45.490;4.912;2024-03-29T13:58:52;19.90;85.00
40123;DHT22;25832;45.490;4.912;2024-03-29T14:01:18;19.90;84.40
40123;DHT22;25832;45.490;4.912;2024-03-29T14:03:43;20.00;84.10
40123;DHT22;25832;45.490;4.912;2024-03-29T14:06:10;20.00;84.70
40123;DHT22;25832;45.490;4.912;2024-03-29T14:08:36;20.10;84.60
40123;DHT22;25832;45.490;4.912;2024-03-29T14:11:02;20.10;84.40
40123;DHT22;25832;45.490;4.912;2024-03-29T14:13:27;20.00;83.20
40123;DHT22;25832;45.490;4.912;2024-03-29T14:15:54;19.90;83.00
40123;DHT22;25832;45.490;4.912;2024-03-29T14:18:20;20.00;84.90
40123;DHT22;25832;45.490;4.912;2024-03-29T14:20:46;20.00;82.30
40123;DHT22;25832;45.490;4.912;2024-03-29T14:23:11;20.10;81.70
40123;DHT22;25832;45.490;4.912;2024-03-29T14:25:40;20.20;82.40
40123;DHT22;25832;45.490;4.912;2024-03-29T14:28:06;20.30;81.10
40123;DHT22;25832;45.490;4.912;2024-03-29T14:30:32;20.30;81.80
40123;DHT22;25832;45.490;4.912;2024-03-29T14:32:58;20.20;80.30
40123;DHT22;25832;45.490;4.912;2024-03-29T14:35:28;20.20;81.50
40123;DHT22;25832;45.490;4.912;2024-03-29T14:37:56;20.10;81.90
40123;DHT22;25832;45.490;4.912;2024-03-29T14:40:22;20.20;81.00
40123;DHT22;25832;45.490;4.912;2024-03-29T14:42:47;20.10;81.60
40123;DHT22;25832;45.490;4.912;2024-03-29T14:45:13;20.10;81.60
40123;DHT22;25832;45.490;4.912;2024-03-29T14:47:39;20.10;82.00
40123;DHT22;25832;45.490;4.912;2024-03-29T14:50:05;20.10;81.70
40123;DHT22;25832;45.490;4.912;2024-03-29T14:52:34;19.90;81.60
40123;DHT22;25832;45.490;4.912;2024-03-29T14:55:00;19.80;82.00
40123;DHT22;25832;45.490;4.912;2024-03-29T14:57:25;19.70;82.30
40123;DHT22;25832;45.490;4.912;2024-03-29T14:59:51;19.70;82.70
40123;DHT22;25832;45.490;4.912;2024-03-29T15:02:17;19.60;82.20
40123;DHT22;25832;45.490;4.912;2024-03-29T15:04:42;19.50;83.00
40123;DHT22;25832;45.490;4.912;2024-03-29T15:07:08;19.50;82.90
40123;DHT22;25832;45.490;4.912;2024-03-29T15:09:34;19.50;82.80
40123;DHT22;25832;45.490;4.912;2024-03-29T15:12:03;19.50;82.50
40123;DHT22;25832;45.490;4.912;2024-03-29T15:14:32;19.50;83.60
40123;DHT22;25832;45.490;4.912;2024-03-29T15:16:57;19.50;83.30
40123;DHT22;25832;45.490;4.912;2024-03-29T15:19:23;19.60;82.40
40123;DHT22;25832;45.490;4.912;2024-03-29T15:21:49;19.60;82.90
40123;DHT22;25832;45.490;4.912;2024-03-29T15:24:15;19.60;83.30
40123;DHT22;25832;45.490;4.912;2024-03-29T15:26:41;19.60;84.30
40123;DHT22;25832;45.490;4.912;2024-03-29T15:29:07;19.60;83.10
40123;DHT22;25832;45.490;4.912;2024-03-29T15:31:42;19.60;83.20
40123;DHT22;25832;45.490;4.912;2024-03-29T15:34:12;19.60;83.90
40123;DHT22;25832;45.490;4.912;2024-03-29T15:36:38;19.60;82.20
40123;DHT22;25832;45.490;4.912;2024-03-29T15:39:05;19.60;83.40
40123;DHT22;25832;45.490;4.912;2024-03-29T15:41:38;19.60;85.00
40123;DHT22;25832;45.490;4.912;2024-03-29T15:44:05;19.70;83.30
40123;DHT22;25832;45.490;4.912;2024-03-29T15:46:31;19.70;82.00
40123;DHT22;25832;45.490;4.912;2024-03-29T15:48:57;19.70;82.90
40123;DHT22;25832;45.490;4.912;2024-03-29T15:51:24;19.70;83.50
40123;DHT22;25832;45.490;4.912;2024-03-29T15:53:50;19.60;83.10
40123;DHT22;25832;45.490;4.912;2024-03-29T15:56:20;19.50;82.90
40123;DHT22;25832;45.490;4.912;2024-03-29T15:58:47;19.50;82.40
40123;DHT22;25832;45.490;4.912;2024-03-29T16:01:14;19.50;82.80
40123;DHT22;25832;45.490;4.912;2024-03-29T16:03:39;19.50;82.20
40123;DHT22;25832;45.490;4.912;2024-03-29T16:06:06;19.50;82.00
40123;DHT22;25832;45.490;4.912;2024-03-29T16:08:32;19.50;82.80
40123;DHT22;25832;45.490;4.912;2024-03-29T16:10:59;19.50;83.70
40123;DHT22;25832;45.490;4.912;2024-03-29T16:13:27;19.40;82.90
40123;DHT22;25832;45.490;4.912;2024-03-29T16:15:55;19.40;83.20
40123;DHT22;25832;45.490;4.912;2024-03-29T16:18:22;19.30;83.40
40123;DHT22;25832;45.490;4.912;2024-03-29T16:20:48;19.30;83.40
40123;DHT22;25832;45.490;4.912;2024-03-29T16:23:14;19.20;83.80
40123;DHT22;25832;45.490;4.912;2024-03-29T16:25:41;19.20;83.90